sensor_id;sensor_type;location;lat;lon;timestamp;P1;durP1;ratioP1;P2;durP2;ratioP2
25111;SDS011;13092;51.996;4.458;2023-07-29T00:00:32;44.88;;;41.08;;
25111;SDS011;13092;51.996;4.458;2023-07-29T00:03:08;43.65;;;40.20;;
25111;SDS011;13092;51.996;4.458;2023-07-29T00:05:55;45.72;;;41.70;;
25111;SDS011;13092;51.996;4.458;2023-07-29T00:08:41;44.97;;;41.47;;
25111;SDS011;13092;51.996;4.458;2023-07-29T00:11:26;44.58;;;41.05;;
25111;SDS011;13092;51.996;4.458;2023-07-29T00:14:03;46.40;;;42.53;;
25111;SDS011;13092;51.996;4.458;2023-07-29T00:16:33;47.33;;;43.63;;
25111;SDS011;13092;51.996;4.458;2023-07-29T00:19:03;47.45;;;43.65;;
25111;SDS011;13092;51.996;4.458;2023-07-29T00:21:33;47.33;;;43.67;;
25111;SDS011;13092;51.996;4.458;2023-07-29T00:24:01;47.75;;;43.95;;
25111;SDS011;13092;51.996;4.458;2023-07-29T00:26:34;47.90;;;44.15;;
25111;SDS011;13092;51.996;4.458;2023-07-29T00:29:06;48.42;;;44.83;;
25111;SDS011;13092;51.996;4.458;2023-07-29T00:31:35;47.85;;;44.30;;
25111;SDS011;13092;51.996;4.458;2023-07-29T00:34:05;48.17;;;44.22;;
25111;SDS011;13092;51.996;4.458;2023-07-29T00:36:36;48.50;;;44.75;;
25111;SDS011;13092;51.996;4.458;2023-07-29T00:39:18;49.13;;;45.42;;
25111;SDS011;13092;51.996;4.458;2023-07-29T00:42:02;49.03;;;45.42;;
25111;SDS011;13092;51.996;4.458;2023-07-29T00:44:35;48.90;;;45.13;;
25111;SDS011;13092;51.996;4.458;2023-07-29T00:47:08;49.15;;;45.25;;
25111;SDS011;13092;51.996;4.458;2023-07-29T00:49:39;48.97;;;44.92;;
25111;SDS011;13092;51.996;4.458;2023-07-29T00:52:13;49.20;;;45.30;;
25111;SDS011;13092;51.996;4.458;2023-07-29T00:54:59;49.75;;;45.95;;
25111;SDS011;13092;51.996;4.458;2023-07-29T00:57:28;48.72;;;45.03;;
25111;SDS011;13092;51.996;4.458;2023-07-29T01:00:00;48.35;;;44.65;;
25111;SDS011;13092;51.996;4.458;2023-07-29T01:02:32;47.22;;;43.33;;
25111;SDS011;13092;51.996;4.458;2023-07-29T01:05:08;48.20;;;44.40;;
25111;SDS011;13092;51.996;4.458;2023-07-29T01:07:44;48.20;;;44.50;;
25111;SDS011;13092;51.996;4.458;2023-07-29T01:10:30;46.58;;;43.08;;
25111;SDS011;13092;51.996;4.458;2023-07-29T01:13:05;46.95;;;43.35;;
25111;SDS011;13092;51.996;4.458;2023-07-29T01:15:43;48.17;;;44.47;;
25111;SDS011;13092;51.996;4.458;2023-07-29T01:18:26;48.40;;;44.80;;
25111;SDS011;13092;51.996;4.458;2023-07-29T01:20:59;49.00;;;45.40;;
25111;SDS011;13092;51.996;4.458;2023-07-29T01:23:39;48.72;;;45.17;;
25111;SDS011;13092;51.996;4.458;2023-07-29T01:26:12;48.90;;;45.10;;
25111;SDS011;13092;51.996;4.458;2023-07-29T01:28:48;49.22;;;45.10;;
25111;SDS011;13092;51.996;4.458;2023-07-29T01:31:24;47.53;;;43.88;;
25111;SDS011;13092;51.996;4.458;2023-07-29T01:34:02;48.38;;;44.78;;
25111;SDS011;13092;51.996;4.458;2023-07-29T01:36:40;49.85;;;46.05;;
25111;SDS011;13092;51.996;4.458;2023-07-29T01:39:14;49.67;;;45.80;;
25111;SDS011;13092;51.996;4.458;2023-07-29T01:41:51;49.13;;;45.00;;
25111;SDS011;13092;51.996;4.458;2023-07-29T01:44:22;49.33;;;45.67;;
25111;SDS011;13092;51.996;4.458;2023-07-29T01:46:55;50.70;;;46.55;;
25111;SDS011;13092;51.996;4.458;2023-07-29T01:49:28;50.72;;;46.90;;
25111;SDS011;13092;51.996;4.458;2023-07-29T01:51:57;49.05;;;45.25;;
25111;SDS011;13092;51.996;4.458;2023-07-29T01:54:28;48.40;;;44.70;;
25111;SDS011;13092;51.996;4.458;2023-07-29T01:56:56;49.25;;;45.50;;
25111;SDS011;13092;51.996;4.458;2023-07-29T01:59:28;48.60;;;44.90;;
25111;SDS011;13092;51.996;4.458;2023-07-29T02:02:01;48.90;;;45.10;;
25111;SDS011;13092;51.996;4.458;2023-07-29T02:04:30;49.45;;;45.65;;
25111;SDS011;13092;51.996;4.458;2023-07-29T02:07:08;49.72;;;45.90;;
25111;SDS011;13092;51.996;4.458;2023-07-29T02:09:37;50.55;;;46.85;;
25111;SDS011;13092;51.996;4.458;2023-07-29T02:12:08;50.03;;;46.33;;
25111;SDS011;13092;51.996;4.458;2023-07-29T02:14:41;49.85;;;45.97;;
25111;SDS011;13092;51.996;4.458;2023-07-29T02:17:31;50.65;;;46.78;;
25111;SDS011;13092;51.996;4.458;2023-07-29T02:20:08;49.63;;;45.92;;
25111;SDS011;13092;51.996;4.458;2023-07-29T02:22:40;49.60;;;45.78;;
25111;SDS011;13092;51.996;4.458;2023-07-29T02:25:21;50.63;;;46.92;;
25111;SDS011;13092;51.996;4.458;2023-07-29T02:27:53;49.90;;;46.10;;
25111;SDS011;13092;51.996;4.458;2023-07-29T02:30:24;49.65;;;45.88;;
25111;SDS011;13092;51.996;4.458;2023-07-29T02:32:53;49.33;;;45.42;;
25111;SDS011;13092;51.996;4.458;2023-07-29T02:35:24;49.55;;;45.65;;
25111;SDS011;13092;51.996;4.458;2023-07-29T02:37:55;49.92;;;46.05;;
25111;SDS011;13092;51.996;4.458;2023-07-29T02:40:30;50.40;;;46.60;;
25111;SDS011;13092;51.996;4.458;2023-07-29T02:43:06;48.67;;;45.05;;
25111;SDS011;13092;51.996;4.458;2023-07-29T02:45:39;49.22;;;45.63;;
25111;SDS011;13092;51.996;4.458;2023-07-29T02:48:12;50.97;;;47.15;;
25111;SDS011;13092;51.996;4.458;2023-07-29T02:50:42;50.92;;;47.03;;
25111;SDS011;13092;51.996;4.458;2023-07-29T02:53:14;49.35;;;45.55;;
25111;SDS011;13092;51.996;4.458;2023-07-29T02:55:54;47.65;;;43.95;;
25111;SDS011;13092;51.996;4.458;2023-07-29T02:58:23;49.08;;;45.33;;
25111;SDS011;13092;51.996;4.458;2023-07-29T03:01:00;49.40;;;45.70;;
25111;SDS011;13092;51.996;4.458;2023-07-29T03:03:36;48.95;;;45.28;;
25111;SDS011;13092;51.996;4.458;2023-07-29T03:06:08;49.42;;;45.72;;
25111;SDS011;13092;51.996;4.458;2023-07-29T03:08:37;48.25;;;44.55;;
25111;SDS011;13092;51.996;4.458;2023-07-29T03:11:10;47.63;;;44.05;;
25111;SDS011;13092;51.996;4.458;2023-07-29T03:13:40;47.20;;;43.60;;
25111;SDS011;13092;51.996;4.458;2023-07-29T03:16:15;49.83;;;45.83;;
25111;SDS011;13092;51.996;4.458;2023-07-29T03:18:55;47.80;;;44.05;;
25111;SDS011;13092;51.996;4.458;2023-07-29T03:21:24;48.40;;;44.60;;
25111;SDS011;13092;51.996;4.458;2023-07-29T03:23:57;47.88;;;44.10;;
25111;SDS011;13092;51.996;4.458;2023-07-29T03:26:29;47.58;;;43.63;;
25111;SDS011;13092;51.996;4.458;2023-07-29T03:28:59;46.58;;;42.85;;
25111;SDS011;13092;51.996;4.458;2023-07-29T03:31:31;47.05;;;43.25;;
25111;SDS011;13092;51.996;4.458;2023-07-29T03:34:07;47.25;;;43.38;;
25111;SDS011;13092;51.996;4.458;2023-07-29T03:36:41;46.60;;;42.92;;
25111;SDS011;13092;51.996;4.458;2023-07-29T03:39:14;46.70;;;43.10;;
25111;SDS011;13092;51.996;4.458;2023-07-29T03:41:55;47.13;;;43.33;;
25111;SDS011;13092;51.996;4.458;2023-07-29T03:44:51;47.58;;;43.97;;
25111;SDS011;13092;51.996;4.458;2023-07-29T03:47:31;46.33;;;42.72;;
25111;SDS011;13092;51.996;4.458;2023-07-29T03:50:03;47.72;;;44.05;;
25111;SDS011;13092;51.996;4.458;2023-07-29T03:52:35;47.38;;;43.58;;
25111;SDS011;13092;51.996;4.458;2023-07-29T03:55:07;48.70;;;44.90;;
25111;SDS011;13092;51.996;4.458;2023-07-29T03:57:38;48.92;;;45.03;;
25111;SDS011;13092;51.996;4.458;2023-07-29T04:00:09;47.88;;;44.03;;
25111;SDS011;13092;51.996;4.458;2023-07-29T04:02:41;47.50;;;43.78;;
25111;SDS011;13092;51.996;4.458;2023-07-29T04:05:24;47.72;;;43.92;;
25111;SDS011;13092;51.996;4.458;2023-07-29T04:07:57;46.28;;;42.53;;
25111;SDS011;13092;51.996;4.458;2023-07-29T04:10:32;46.55;;;42.88;;
25111;SDS011;13092;51.996;4.458;2023-07-29T04:13:06;47.05;;;43.22;;
25111;SDS011;13092;51.996;4.458;2023-07-29T04:15:56;46.88;;;43.25;;
25111;SDS011;13092;51.996;4.458;2023-07-29T04:18:37;45.75;;;42.17;;
25111;SDS011;13092;51.996;4.458;2023-07-29T04:21:10;46.67;;;42.97;;
25111;SDS011;13092;51.996;4.458;2023-07-29T04:23:44;48.35;;;44.42;;
25111;SDS011;13092;51.996;4.458;2023-07-29T04:29:07;46.75;;;42.75;;
25111;SDS011;13092;51.996;4.458;2023-07-29T04:31:38;45.63;;;41.92;;
25111;SDS011;13092;51.996;4.458;2023-07-29T04:34:07;45.28;;;41.67;;
25111;SDS011;13092;51.996;4.458;2023-07-29T04:36:36;45.28;;;41.53;;
25111;SDS011;13092;51.996;4.458;2023-07-29T04:39:13;44.97;;;41.17;;
25111;SDS011;13092;51.996;4.458;2023-07-29T04:41:42;45.78;;;41.75;;
25111;SDS011;13092;51.996;4.458;2023-07-29T04:44:31;43.97;;;40.08;;
25111;SDS011;13092;51.996;4.458;2023-07-29T04:47:00;45.17;;;41.45;;
25111;SDS011;13092;51.996;4.458;2023-07-29T04:49:31;45.97;;;42.20;;
25111;SDS011;13092;51.996;4.458;2023-07-29T04:51:59;45.45;;;41.65;;
25111;SDS011;13092;51.996;4.458;2023-07-29T04:54:28;45.80;;;42.30;;
25111;SDS011;13092;51.996;4.458;2023-07-29T04:56:57;45.30;;;41.47;;
25111;SDS011;13092;51.996;4.458;2023-07-29T04:59:27;44.65;;;40.90;;
25111;SDS011;13092;51.996;4.458;2023-07-29T05:02:00;44.08;;;40.50;;
25111;SDS011;13092;51.996;4.458;2023-07-29T05:04:29;45.20;;;41.53;;
25111;SDS011;13092;51.996;4.458;2023-07-29T05:06:58;45.75;;;41.92;;
25111;SDS011;13092;51.996;4.458;2023-07-29T05:09:27;44.88;;;41.13;;
25111;SDS011;13092;51.996;4.458;2023-07-29T05:11:58;43.97;;;40.08;;
25111;SDS011;13092;51.996;4.458;2023-07-29T05:14:37;43.80;;;40.25;;
25111;SDS011;13092;51.996;4.458;2023-07-29T05:17:09;43.80;;;40.00;;
25111;SDS011;13092;51.996;4.458;2023-07-29T05:19:37;44.78;;;41.05;;
25111;SDS011;13092;51.996;4.458;2023-07-29T05:22:07;44.60;;;41.08;;
25111;SDS011;13092;51.996;4.458;2023-07-29T05:24:42;45.63;;;41.40;;
25111;SDS011;13092;51.996;4.458;2023-07-29T05:27:24;45.17;;;41.33;;
25111;SDS011;13092;51.996;4.458;2023-07-29T05:29:54;44.03;;;40.63;;
25111;SDS011;13092;51.996;4.458;2023-07-29T05:32:22;43.70;;;39.97;;
25111;SDS011;13092;51.996;4.458;2023-07-29T05:35:03;43.70;;;40.20;;
25111;SDS011;13092;51.996;4.458;2023-07-29T05:37:37;43.75;;;40.10;;
25111;SDS011;13092;51.996;4.458;2023-07-29T05:40:28;43.95;;;40.22;;
25111;SDS011;13092;51.996;4.458;2023-07-29T05:43:21;42.85;;;39.45;;
25111;SDS011;13092;51.996;4.458;2023-07-29T05:46:09;41.58;;;38.08;;
25111;SDS011;13092;51.996;4.458;2023-07-29T05:48:59;42.83;;;39.05;;
25111;SDS011;13092;51.996;4.458;2023-07-29T05:51:34;43.42;;;39.72;;
25111;SDS011;13092;51.996;4.458;2023-07-29T05:54:37;44.08;;;40.47;;
25111;SDS011;13092;51.996;4.458;2023-07-29T05:57:24;44.20;;;40.35;;
25111;SDS011;13092;51.996;4.458;2023-07-29T06:00:12;43.17;;;39.35;;
25111;SDS011;13092;51.996;4.458;2023-07-29T06:03:02;41.83;;;38.17;;
25111;SDS011;13092;51.996;4.458;2023-07-29T06:06:02;42.15;;;38.33;;
25111;SDS011;13092;51.996;4.458;2023-07-29T06:09:10;42.75;;;39.05;;
25111;SDS011;13092;51.996;4.458;2023-07-29T06:12:06;42.67;;;38.83;;
25111;SDS011;13092;51.996;4.458;2023-07-29T06:14:38;42.50;;;38.35;;
25111;SDS011;13092;51.996;4.458;2023-07-29T06:17:12;42.50;;;38.72;;
25111;SDS011;13092;51.996;4.458;2023-07-29T06:20:04;42.42;;;38.90;;
25111;SDS011;13092;51.996;4.458;2023-07-29T06:22:41;42.53;;;38.92;;
25111;SDS011;13092;51.996;4.458;2023-07-29T06:25:27;41.13;;;37.53;;
25111;SDS011;13092;51.996;4.458;2023-07-29T06:31:01;41.40;;;37.70;;
25111;SDS011;13092;51.996;4.458;2023-07-29T06:34:04;42.38;;;38.60;;
25111;SDS011;13092;51.996;4.458;2023-07-29T06:39:36;42.05;;;38.47;;
25111;SDS011;13092;51.996;4.458;2023-07-29T06:42:27;41.95;;;38.45;;
25111;SDS011;13092;51.996;4.458;2023-07-29T06:45:08;40.65;;;37.33;;
25111;SDS011;13092;51.996;4.458;2023-07-29T06:47:53;42.17;;;38.67;;
25111;SDS011;13092;51.996;4.458;2023-07-29T06:51:17;40.83;;;37.22;;
25111;SDS011;13092;51.996;4.458;2023-07-29T06:54:08;41.42;;;37.72;;
25111;SDS011;13092;51.996;4.458;2023-07-29T06:57:03;41.22;;;37.63;;
25111;SDS011;13092;51.996;4.458;2023-07-29T06:59:47;40.75;;;37.25;;
25111;SDS011;13092;51.996;4.458;2023-07-29T07:10:11;40.53;;;36.95;;
25111;SDS011;13092;51.996;4.458;2023-07-29T07:13:13;38.35;;;35.05;;
25111;SDS011;13092;51.996;4.458;2023-07-29T07:16:36;38.88;;;35.53;;
25111;SDS011;13092;51.996;4.458;2023-07-29T07:19:30;38.30;;;35.25;;
25111;SDS011;13092;51.996;4.458;2023-07-29T07:22:13;39.25;;;36.17;;
25111;SDS011;13092;51.996;4.458;2023-07-29T07:29:40;38.70;;;35.70;;
25111;SDS011;13092;51.996;4.458;2023-07-29T07:32:42;42.22;;;38.83;;
25111;SDS011;13092;51.996;4.458;2023-07-29T07:35:38;42.22;;;38.85;;
25111;SDS011;13092;51.996;4.458;2023-07-29T07:46:03;45.28;;;41.70;;
25111;SDS011;13092;51.996;4.458;2023-07-29T07:49:07;44.47;;;41.17;;
25111;SDS011;13092;51.996;4.458;2023-07-29T07:52:04;43.22;;;40.00;;
25111;SDS011;13092;51.996;4.458;2023-07-29T07:55:50;43.97;;;40.78;;
25111;SDS011;13092;51.996;4.458;2023-07-29T07:58:23;43.78;;;40.47;;
25111;SDS011;13092;51.996;4.458;2023-07-29T08:01:03;43.60;;;40.28;;
25111;SDS011;13092;51.996;4.458;2023-07-29T08:03:35;46.00;;;42.35;;
25111;SDS011;13092;51.996;4.458;2023-07-29T08:06:05;43.83;;;40.50;;
25111;SDS011;13092;51.996;4.458;2023-07-29T08:08:48;42.58;;;39.58;;
25111;SDS011;13092;51.996;4.458;2023-07-29T08:11:42;43.25;;;40.35;;
25111;SDS011;13092;51.996;4.458;2023-07-29T08:18:01;47.65;;;44.30;;
25111;SDS011;13092;51.996;4.458;2023-07-29T08:20:59;46.03;;;42.38;;
25111;SDS011;13092;51.996;4.458;2023-07-29T08:23:30;45.33;;;42.13;;
25111;SDS011;13092;51.996;4.458;2023-07-29T08:26:32;45.45;;;42.05;;
25111;SDS011;13092;51.996;4.458;2023-07-29T08:29:05;47.22;;;43.72;;
25111;SDS011;13092;51.996;4.458;2023-07-29T08:31:41;46.17;;;42.85;;
25111;SDS011;13092;51.996;4.458;2023-07-29T08:34:38;47.75;;;44.15;;
25111;SDS011;13092;51.996;4.458;2023-07-29T08:37:29;49.00;;;45.20;;
25111;SDS011;13092;51.996;4.458;2023-07-29T08:40:04;50.22;;;46.42;;
25111;SDS011;13092;51.996;4.458;2023-07-29T08:42:37;51.08;;;46.92;;
25111;SDS011;13092;51.996;4.458;2023-07-29T08:48:45;52.63;;;48.33;;
25111;SDS011;13092;51.996;4.458;2023-07-29T08:51:19;50.95;;;46.65;;
25111;SDS011;13092;51.996;4.458;2023-07-29T08:54:38;50.50;;;46.33;;
25111;SDS011;13092;51.996;4.458;2023-07-29T08:57:53;51.03;;;46.92;;
25111;SDS011;13092;51.996;4.458;2023-07-29T09:01:06;52.22;;;47.83;;
25111;SDS011;13092;51.996;4.458;2023-07-29T09:03:58;54.05;;;49.45;;
25111;SDS011;13092;51.996;4.458;2023-07-29T09:06:27;52.58;;;47.83;;
25111;SDS011;13092;51.996;4.458;2023-07-29T09:08:55;52.95;;;48.42;;
25111;SDS011;13092;51.996;4.458;2023-07-29T09:11:26;53.47;;;48.80;;
25111;SDS011;13092;51.996;4.458;2023-07-29T09:17:11;50.22;;;46.22;;
25111;SDS011;13092;51.996;4.458;2023-07-29T09:24:20;48.88;;;44.88;;
25111;SDS011;13092;51.996;4.458;2023-07-29T09:31:18;49.75;;;45.85;;
25111;SDS011;13092;51.996;4.458;2023-07-29T09:34:06;49.50;;;45.35;;
25111;SDS011;13092;51.996;4.458;2023-07-29T09:37:12;47.22;;;43.63;;
25111;SDS011;13092;51.996;4.458;2023-07-29T09:40:13;48.25;;;44.58;;
25111;SDS011;13092;51.996;4.458;2023-07-29T09:43:41;49.00;;;45.00;;
25111;SDS011;13092;51.996;4.458;2023-07-29T09:46:22;50.17;;;46.08;;
25111;SDS011;13092;51.996;4.458;2023-07-29T09:49:03;52.15;;;47.97;;
25111;SDS011;13092;51.996;4.458;2023-07-29T09:52:09;51.00;;;47.00;;
25111;SDS011;13092;51.996;4.458;2023-07-29T09:58:29;48.80;;;45.28;;
25111;SDS011;13092;51.996;4.458;2023-07-29T10:01:35;51.00;;;47.00;;
25111;SDS011;13092;51.996;4.458;2023-07-29T10:04:36;50.70;;;46.97;;
25111;SDS011;13092;51.996;4.458;2023-07-29T10:07:58;51.33;;;47.55;;
25111;SDS011;13092;51.996;4.458;2023-07-29T10:11:27;54.10;;;50.00;;
25111;SDS011;13092;51.996;4.458;2023-07-29T10:18:29;57.53;;;53.20;;
25111;SDS011;13092;51.996;4.458;2023-07-29T10:21:52;59.72;;;55.00;;
25111;SDS011;13092;51.996;4.458;2023-07-29T10:28:00;56.63;;;52.10;;
25111;SDS011;13092;51.996;4.458;2023-07-29T10:34:44;53.67;;;49.28;;
25111;SDS011;13092;51.996;4.458;2023-07-29T10:37:42;56.30;;;51.88;;
25111;SDS011;13092;51.996;4.458;2023-07-29T10:40:18;54.45;;;50.15;;
25111;SDS011;13092;51.996;4.458;2023-07-29T10:42:59;55.20;;;50.80;;
25111;SDS011;13092;51.996;4.458;2023-07-29T10:45:36;54.60;;;50.15;;
25111;SDS011;13092;51.996;4.458;2023-07-29T10:48:11;56.67;;;52.08;;
25111;SDS011;13092;51.996;4.458;2023-07-29T10:51:04;57.35;;;50.72;;
25111;SDS011;13092;51.996;4.458;2023-07-29T10:54:12;55.80;;;51.22;;
25111;SDS011;13092;51.996;4.458;2023-07-29T10:57:18;53.20;;;48.72;;
25111;SDS011;13092;51.996;4.458;2023-07-29T11:01:07;52.58;;;48.17;;
25111;SDS011;13092;51.996;4.458;2023-07-29T11:11:45;52.72;;;48.38;;
25111;SDS011;13092;51.996;4.458;2023-07-29T11:17:48;53.50;;;49.40;;
25111;SDS011;13092;51.996;4.458;2023-07-29T11:35:00;58.13;;;53.42;;
25111;SDS011;13092;51.996;4.458;2023-07-29T11:38:03;58.78;;;53.97;;
25111;SDS011;13092;51.996;4.458;2023-07-29T11:40:35;58.67;;;53.88;;
25111;SDS011;13092;51.996;4.458;2023-07-29T11:43:16;57.95;;;53.38;;
25111;SDS011;13092;51.996;4.458;2023-07-29T11:47:23;57.72;;;53.33;;
25111;SDS011;13092;51.996;4.458;2023-07-29T11:54:39;59.30;;;54.80;;
25111;SDS011;13092;51.996;4.458;2023-07-29T12:43:46;61.42;;;57.50;;
25111;SDS011;13092;51.996;4.458;2023-07-29T12:46:51;57.70;;;53.97;;
25111;SDS011;13092;51.996;4.458;2023-07-29T12:53:23;65.82;;;61.42;;
25111;SDS011;13092;51.996;4.458;2023-07-29T12:56:36;63.50;;;59.20;;
25111;SDS011;13092;51.996;4.458;2023-07-29T12:59:44;65.82;;;61.40;;
25111;SDS011;13092;51.996;4.458;2023-07-29T13:06:31;63.17;;;58.58;;
25111;SDS011;13092;51.996;4.458;2023-07-29T13:10:18;67.57;;;62.97;;
25111;SDS011;13092;51.996;4.458;2023-07-29T13:19:36;60.60;;;56.72;;
25111;SDS011;13092;51.996;4.458;2023-07-29T13:22:44;65.43;;;61.35;;
25111;SDS011;13092;51.996;4.458;2023-07-29T13:25:41;60.83;;;57.03;;
25111;SDS011;13092;51.996;4.458;2023-07-29T13:44:51;55.30;;;52.10;;
25111;SDS011;13092;51.996;4.458;2023-07-29T13:47:20;49.05;;;46.25;;
25111;SDS011;13092;51.996;4.458;2023-07-29T13:49:48;54.10;;;50.70;;
25111;SDS011;13092;51.996;4.458;2023-07-29T13:52:16;57.95;;;54.35;;
25111;SDS011;13092;51.996;4.458;2023-07-29T13:54:44;53.97;;;50.80;;
25111;SDS011;13092;51.996;4.458;2023-07-29T13:57:13;44.13;;;41.45;;
25111;SDS011;13092;51.996;4.458;2023-07-29T13:59:41;49.70;;;46.60;;
25111;SDS011;13092;51.996;4.458;2023-07-29T14:02:11;43.13;;;40.53;;
25111;SDS011;13092;51.996;4.458;2023-07-29T14:04:40;28.10;;;26.40;;
25111;SDS011;13092;51.996;4.458;2023-07-29T14:07:08;20.13;;;18.83;;
25111;SDS011;13092;51.996;4.458;2023-07-29T14:09:37;8.90;;;8.10;;
25111;SDS011;13092;51.996;4.458;2023-07-29T14:12:05;8.02;;;7.38;;
25111;SDS011;13092;51.996;4.458;2023-07-29T14:14:38;5.30;;;4.90;;
25111;SDS011;13092;51.996;4.458;2023-07-29T14:17:07;4.53;;;4.13;;
25111;SDS011;13092;51.996;4.458;2023-07-29T14:19:38;6.60;;;2.70;;
25111;SDS011;13092;51.996;4.458;2023-07-29T14:22:06;5.22;;;3.10;;
25111;SDS011;13092;51.996;4.458;2023-07-29T14:24:34;4.72;;;2.72;;
25111;SDS011;13092;51.996;4.458;2023-07-29T14:27:03;2.53;;;1.90;;
25111;SDS011;13092;51.996;4.458;2023-07-29T14:29:32;4.55;;;1.80;;
25111;SDS011;13092;51.996;4.458;2023-07-29T14:32:00;2.90;;;1.80;;
25111;SDS011;13092;51.996;4.458;2023-07-29T14:34:29;4.07;;;2.42;;
25111;SDS011;13092;51.996;4.458;2023-07-29T14:36:58;2.53;;;2.00;;
25111;SDS011;13092;51.996;4.458;2023-07-29T14:39:29;2.25;;;1.90;;
25111;SDS011;13092;51.996;4.458;2023-07-29T14:42:00;3.42;;;1.90;;
25111;SDS011;13092;51.996;4.458;2023-07-29T14:44:28;6.75;;;2.22;;
25111;SDS011;13092;51.996;4.458;2023-07-29T14:46:58;4.60;;;2.63;;
25111;SDS011;13092;51.996;4.458;2023-07-29T14:49:29;4.38;;;2.40;;
25111;SDS011;13092;51.996;4.458;2023-07-29T14:51:59;3.55;;;2.30;;
25111;SDS011;13092;51.996;4.458;2023-07-29T14:54:31;4.65;;;2.30;;
25111;SDS011;13092;51.996;4.458;2023-07-29T14:56:59;3.42;;;2.33;;
25111;SDS011;13092;51.996;4.458;2023-07-29T14:59:30;5.32;;;2.85;;
25111;SDS011;13092;51.996;4.458;2023-07-29T15:02:01;5.68;;;2.70;;
25111;SDS011;13092;51.996;4.458;2023-07-29T15:04:30;4.15;;;2.72;;
25111;SDS011;13092;51.996;4.458;2023-07-29T15:07:03;4.22;;;3.53;;
25111;SDS011;13092;51.996;4.458;2023-07-29T15:09:31;4.05;;;2.80;;
25111;SDS011;13092;51.996;4.458;2023-07-29T15:12:00;6.95;;;3.70;;
25111;SDS011;13092;51.996;4.458;2023-07-29T15:14:28;4.78;;;3.70;;
25111;SDS011;13092;51.996;4.458;2023-07-29T15:16:57;5.13;;;2.80;;
25111;SDS011;13092;51.996;4.458;2023-07-29T15:19:28;5.53;;;2.80;;
25111;SDS011;13092;51.996;4.458;2023-07-29T15:24:42;3.05;;;2.40;;
25111;SDS011;13092;51.996;4.458;2023-07-29T15:27:52;5.10;;;4.03;;
25111;SDS011;13092;51.996;4.458;2023-07-29T15:31:46;2.63;;;1.98;;
25111;SDS011;13092;51.996;4.458;2023-07-29T15:35:14;2.65;;;2.00;;
25111;SDS011;13092;51.996;4.458;2023-07-29T15:45:21;6.60;;;2.20;;
25111;SDS011;13092;51.996;4.458;2023-07-29T15:58:55;4.32;;;2.08;;
25111;SDS011;13092;51.996;4.458;2023-07-29T16:02:11;7.38;;;3.92;;
25111;SDS011;13092;51.996;4.458;2023-07-29T16:05:31;8.73;;;2.25;;
25111;SDS011;13092;51.996;4.458;2023-07-29T16:08:37;6.97;;;1.92;;
25111;SDS011;13092;51.996;4.458;2023-07-29T16:22:05;8.20;;;2.47;;
25111;SDS011;13092;51.996;4.458;2023-07-29T16:32:12;11.43;;;2.53;;
25111;SDS011;13092;51.996;4.458;2023-07-29T16:35:05;8.90;;;2.92;;
25111;SDS011;13092;51.996;4.458;2023-07-29T16:38:14;8.15;;;2.55;;
25111;SDS011;13092;51.996;4.458;2023-07-29T16:41:35;5.78;;;2.10;;
25111;SDS011;13092;51.996;4.458;2023-07-29T16:44:42;10.18;;;3.33;;
25111;SDS011;13092;51.996;4.458;2023-07-29T16:47:50;8.65;;;2.90;;
25111;SDS011;13092;51.996;4.458;2023-07-29T16:50:54;8.55;;;2.60;;
25111;SDS011;13092;51.996;4.458;2023-07-29T16:57:49;9.90;;;3.42;;
25111;SDS011;13092;51.996;4.458;2023-07-29T17:00:38;9.13;;;2.72;;
25111;SDS011;13092;51.996;4.458;2023-07-29T17:17:50;12.50;;;3.00;;
25111;SDS011;13092;51.996;4.458;2023-07-29T17:32:00;13.20;;;3.55;;
25111;SDS011;13092;51.996;4.458;2023-07-29T17:34:53;15.05;;;3.63;;
25111;SDS011;13092;51.996;4.458;2023-07-29T17:37:52;12.05;;;3.47;;
25111;SDS011;13092;51.996;4.458;2023-07-29T17:41:28;11.90;;;3.33;;
25111;SDS011;13092;51.996;4.458;2023-07-29T17:44:02;9.77;;;3.10;;
25111;SDS011;13092;51.996;4.458;2023-07-29T17:47:42;10.18;;;3.63;;
25111;SDS011;13092;51.996;4.458;2023-07-29T17:50:17;11.07;;;3.13;;
25111;SDS011;13092;51.996;4.458;2023-07-29T18:01:47;13.57;;;3.67;;
25111;SDS011;13092;51.996;4.458;2023-07-29T18:04:15;12.25;;;3.28;;
25111;SDS011;13092;51.996;4.458;2023-07-29T18:06:46;12.32;;;3.53;;
25111;SDS011;13092;51.996;4.458;2023-07-29T18:11:52;12.55;;;3.50;;
25111;SDS011;13092;51.996;4.458;2023-07-29T18:14:27;10.75;;;3.20;;
25111;SDS011;13092;51.996;4.458;2023-07-29T18:27:45;13.50;;;3.83;;
25111;SDS011;13092;51.996;4.458;2023-07-29T18:30:15;13.07;;;3.10;;
25111;SDS011;13092;51.996;4.458;2023-07-29T18:32:44;12.45;;;3.60;;
25111;SDS011;13092;51.996;4.458;2023-07-29T18:35:15;14.10;;;3.63;;
25111;SDS011;13092;51.996;4.458;2023-07-29T18:37:44;11.25;;;3.10;;
25111;SDS011;13092;51.996;4.458;2023-07-29T18:40:13;11.55;;;3.70;;
25111;SDS011;13092;51.996;4.458;2023-07-29T18:42:42;14.38;;;3.88;;
25111;SDS011;13092;51.996;4.458;2023-07-29T18:45:10;11.73;;;3.20;;
25111;SDS011;13092;51.996;4.458;2023-07-29T18:47:40;11.60;;;3.85;;
25111;SDS011;13092;51.996;4.458;2023-07-29T18:50:09;11.68;;;3.53;;
25111;SDS011;13092;51.996;4.458;2023-07-29T18:52:37;13.57;;;3.72;;
25111;SDS011;13092;51.996;4.458;2023-07-29T18:55:06;13.35;;;3.88;;
25111;SDS011;13092;51.996;4.458;2023-07-29T18:57:35;13.90;;;3.67;;
25111;SDS011;13092;51.996;4.458;2023-07-29T19:00:04;13.10;;;3.42;;
25111;SDS011;13092;51.996;4.458;2023-07-29T19:02:33;13.32;;;4.05;;
25111;SDS011;13092;51.996;4.458;2023-07-29T19:05:03;12.82;;;3.58;;
25111;SDS011;13092;51.996;4.458;2023-07-29T19:07:34;14.65;;;4.05;;
25111;SDS011;13092;51.996;4.458;2023-07-29T19:10:05;14.82;;;4.30;;
25111;SDS011;13092;51.996;4.458;2023-07-29T19:12:35;13.27;;;4.57;;
25111;SDS011;13092;51.996;4.458;2023-07-29T19:15:05;10.35;;;5.40;;
25111;SDS011;13092;51.996;4.458;2023-07-29T19:17:34;14.00;;;6.00;;
25111;SDS011;13092;51.996;4.458;2023-07-29T19:20:05;17.60;;;7.43;;
25111;SDS011;13092;51.996;4.458;2023-07-29T19:22:34;18.80;;;9.68;;
25111;SDS011;13092;51.996;4.458;2023-07-29T19:25:06;17.85;;;12.32;;
25111;SDS011;13092;51.996;4.458;2023-07-29T19:27:36;20.27;;;15.73;;
25111;SDS011;13092;51.996;4.458;2023-07-29T19:30:05;23.63;;;16.02;;
25111;SDS011;13092;51.996;4.458;2023-07-29T19:32:36;21.10;;;18.67;;
25111;SDS011;13092;51.996;4.458;2023-07-29T19:35:06;23.15;;;20.95;;
25111;SDS011;13092;51.996;4.458;2023-07-29T19:37:35;26.08;;;23.42;;
25111;SDS011;13092;51.996;4.458;2023-07-29T19:40:04;33.38;;;30.77;;
25111;SDS011;13092;51.996;4.458;2023-07-29T19:42:33;39.10;;;35.85;;
25111;SDS011;13092;51.996;4.458;2023-07-29T19:45:02;41.58;;;38.17;;
25111;SDS011;13092;51.996;4.458;2023-07-29T19:47:31;42.92;;;39.47;;
25111;SDS011;13092;51.996;4.458;2023-07-29T19:49:59;41.97;;;38.83;;
25111;SDS011;13092;51.996;4.458;2023-07-29T19:52:34;44.28;;;40.88;;
25111;SDS011;13092;51.996;4.458;2023-07-29T19:55:17;45.67;;;42.25;;
25111;SDS011;13092;51.996;4.458;2023-07-29T19:58:23;44.92;;;41.38;;
25111;SDS011;13092;51.996;4.458;2023-07-29T20:04:25;42.63;;;39.53;;
25111;SDS011;13092;51.996;4.458;2023-07-29T20:17:38;52.50;;;48.58;;
25111;SDS011;13092;51.996;4.458;2023-07-29T20:20:10;53.08;;;48.63;;
25111;SDS011;13092;51.996;4.458;2023-07-29T20:22:38;53.15;;;49.28;;